createdAt,value
2017-02-14T00:00:01.293Z,0
2017-02-14T00:01:10.725Z,0
2017-02-14T00:02:19.733Z,0
2017-02-14T00:03:28.731Z,0
2017-02-14T00:04:37.744Z,0
2017-02-14T00:05:46.745Z,0
2017-02-14T00:06:55.746Z,0
2017-02-14T00:08:04.755Z,0
2017-02-14T00:09:13.771Z,0
2017-02-14T00:10:22.800Z,0
2017-02-14T00:11:32.219Z,0
2017-02-14T00:12:41.225Z,0
2017-02-14T00:13:50.233Z,0
2017-02-14T00:14:59.250Z,0
2017-02-14T00:16:08.235Z,0
2017-02-14T00:17:17.714Z,0
2017-02-14T00:18:27.142Z,0
2017-02-14T00:19:36.576Z,0
2017-02-14T00:20:45.603Z,0
2017-02-14T00:21:54.602Z,0
2017-02-14T00:23:03.627Z,0
2017-02-14T00:24:12.695Z,0
2017-02-14T00:25:22.167Z,0
2017-02-14T00:26:31.157Z,0
2017-02-14T00:27:40.174Z,0
2017-02-14T00:28:49.602Z,0
2017-02-14T00:29:58.603Z,0
2017-02-14T00:31:07.590Z,0
2017-02-14T00:32:16.615Z,0
2017-02-14T00:33:25.624Z,0
2017-02-14T00:34:34.624Z,0
2017-02-14T00:35:43.620Z,0
2017-02-14T00:36:52.621Z,0
2017-02-14T00:38:01.628Z,0
2017-02-14T00:39:11.459Z,0
2017-02-14T00:40:20.456Z,0
2017-02-14T00:41:29.461Z,0
2017-02-14T00:42:38.898Z,0
2017-02-14T00:43:47.896Z,0
2017-02-14T00:44:56.899Z,0
2017-02-14T00:46:05.910Z,0
2017-02-14T00:47:14.937Z,0
2017-02-14T00:48:23.923Z,0
2017-02-14T00:49:32.926Z,0
2017-02-14T00:50:41.921Z,0
2017-02-14T00:51:50.910Z,0
2017-02-14T00:52:59.920Z,0
2017-02-14T00:54:08.927Z,0
2017-02-14T00:55:18.342Z,0
2017-02-14T00:56:27.339Z,0
2017-02-14T00:57:36.340Z,0
2017-02-14T00:58:45.339Z,0
2017-02-14T00:59:54.367Z,0
2017-02-14T01:01:03.393Z,0
2017-02-14T01:02:12.398Z,0
2017-02-14T01:03:21.398Z,0
2017-02-14T01:04:30.405Z,0
2017-02-14T01:05:39.407Z,0
2017-02-14T01:06:48.419Z,0
2017-02-14T01:07:57.486Z,0
2017-02-14T01:09:06.501Z,0
2017-02-14T01:10:15.504Z,0
2017-02-14T01:11:24.529Z,0
2017-02-14T01:12:33.546Z,0
2017-02-14T01:13:42.988Z,0
2017-02-14T01:14:51.991Z,0
2017-02-14T01:16:00.989Z,0
2017-02-14T01:17:09.995Z,0
2017-02-14T01:18:19.015Z,0
2017-02-14T01:19:27.999Z,0
2017-02-14T01:20:37.006Z,0
2017-02-14T01:21:46.427Z,0
2017-02-14T01:22:55.425Z,0
2017-02-14T01:24:04.441Z,0
2017-02-14T01:25:13.433Z,0
2017-02-14T01:26:22.433Z,0
2017-02-14T01:27:31.454Z,0
2017-02-14T01:28:40.459Z,0
2017-02-14T01:29:49.471Z,0
2017-02-14T01:30:58.461Z,0
2017-02-14T01:32:07.462Z,0
2017-02-14T01:33:16.449Z,0
2017-02-14T01:34:25.445Z,0
2017-02-14T01:35:34.861Z,0
2017-02-14T01:36:43.861Z,0
2017-02-14T01:37:52.850Z,0
2017-02-14T01:39:01.952Z,0
2017-02-14T01:40:11.382Z,0
2017-02-14T01:41:20.374Z,0
2017-02-14T01:42:29.358Z,0
2017-02-14T01:43:38.375Z,0
2017-02-14T01:44:47.784Z,0
2017-02-14T01:45:56.796Z,0
2017-02-14T01:47:05.815Z,0
2017-02-14T01:48:14.833Z,0
2017-02-14T01:49:23.816Z,0
2017-02-14T01:50:32.818Z,0
2017-02-14T01:51:41.812Z,0
2017-02-14T01:52:51.241Z,0
2017-02-14T01:54:00.314Z,0
2017-02-14T01:55:09.327Z,0
2017-02-14T01:56:18.348Z,0
2017-02-14T01:57:27.340Z,0
2017-02-14T01:58:36.372Z,0
2017-02-14T01:59:45.355Z,0
2017-02-14T02:00:54.345Z,0
2017-02-14T02:02:03.344Z,0
2017-02-14T02:03:12.336Z,0
2017-02-14T02:04:21.360Z,0
2017-02-14T02:05:30.351Z,0
2017-02-14T02:06:39.366Z,0
2017-02-14T02:07:48.354Z,0
2017-02-14T02:08:57.357Z,0
2017-02-14T02:10:06.348Z,0
2017-02-14T02:11:15.352Z,0
2017-02-14T02:12:24.341Z,0
2017-02-14T02:13:33.357Z,0
2017-02-14T02:14:42.346Z,0
2017-02-14T02:15:51.872Z,0
2017-02-14T02:17:00.858Z,0
2017-02-14T02:18:09.852Z,0
2017-02-14T02:19:19.262Z,0
2017-02-14T02:20:28.253Z,0
2017-02-14T02:21:37.232Z,0
2017-02-14T02:22:46.248Z,0
2017-02-14T02:23:55.241Z,0
2017-02-14T02:25:04.241Z,0
2017-02-14T02:26:13.239Z,0
2017-02-14T02:27:22.231Z,0
2017-02-14T02:28:31.248Z,0
2017-02-14T02:29:40.264Z,0
2017-02-14T02:30:49.263Z,0
2017-02-14T02:31:58.663Z,0
2017-02-14T02:33:07.657Z,0
2017-02-14T02:34:16.645Z,0
2017-02-14T02:35:25.671Z,0
2017-02-14T02:36:34.666Z,0
2017-02-14T02:37:43.676Z,0
2017-02-14T02:38:52.659Z,0
2017-02-14T02:40:01.682Z,0
2017-02-14T02:41:11.082Z,0
2017-02-14T02:42:20.072Z,0
2017-02-14T02:43:29.084Z,0
2017-02-14T02:44:38.128Z,0
2017-02-14T02:45:47.123Z,0
2017-02-14T02:46:56.130Z,0
2017-02-14T02:48:05.131Z,0
2017-02-14T02:49:14.136Z,0
2017-02-14T02:50:23.140Z,0
2017-02-14T02:51:32.131Z,0
2017-02-14T02:52:41.622Z,0
2017-02-14T02:53:51.044Z,0
2017-02-14T02:55:00.032Z,0
2017-02-14T02:56:09.050Z,0
2017-02-14T02:57:18.048Z,0
2017-02-14T02:58:27.053Z,0
2017-02-14T02:59:36.059Z,0
2017-02-14T03:00:45.077Z,0
2017-02-14T03:01:54.063Z,0
2017-02-14T03:03:03.064Z,0
2017-02-14T03:04:12.074Z,0
2017-02-14T03:05:21.491Z,0
2017-02-14T03:06:30.499Z,0
2017-02-14T03:07:39.489Z,0
2017-02-14T03:08:48.487Z,0
2017-02-14T03:09:57.567Z,0
2017-02-14T03:11:06.972Z,0
2017-02-14T03:12:15.975Z,0
2017-02-14T03:13:25.013Z,0
2017-02-14T03:14:34.034Z,0
2017-02-14T03:15:43.039Z,0
2017-02-14T03:16:52.054Z,0
2017-02-14T03:18:01.066Z,0
2017-02-14T03:19:10.072Z,0
2017-02-14T03:20:19.504Z,0
2017-02-14T03:21:28.494Z,0
2017-02-14T03:22:37.502Z,0
2017-02-14T03:23:46.526Z,0
2017-02-14T03:24:55.535Z,0
2017-02-14T03:26:04.538Z,0
2017-02-14T03:27:13.551Z,0
2017-02-14T03:28:23.069Z,0
2017-02-14T03:29:32.067Z,0
2017-02-14T03:30:41.525Z,0
2017-02-14T03:31:50.854Z,0
2017-02-14T03:32:59.868Z,0
2017-02-14T03:34:08.868Z,0
2017-02-14T03:35:17.876Z,0
2017-02-14T03:36:26.895Z,0
2017-02-14T03:37:35.900Z,0
2017-02-14T03:38:44.889Z,0
2017-02-14T03:39:53.895Z,0
2017-02-14T03:41:02.921Z,0
2017-02-14T03:42:11.923Z,0
2017-02-14T03:43:20.933Z,0
2017-02-14T03:44:29.935Z,0
2017-02-14T03:45:38.919Z,0
2017-02-14T03:46:47.907Z,0
2017-02-14T03:47:56.908Z,0
2017-02-14T03:49:06.323Z,0
2017-02-14T03:50:15.337Z,0
2017-02-14T03:51:24.330Z,0
2017-02-14T03:52:33.344Z,0
2017-02-14T03:53:42.339Z,0
2017-02-14T03:54:51.362Z,0
2017-02-14T03:56:00.347Z,0
2017-02-14T03:57:09.348Z,0
2017-02-14T03:58:18.348Z,0
2017-02-14T03:59:27.346Z,0
2017-02-14T04:00:36.361Z,0
2017-02-14T04:01:45.365Z,0
2017-02-14T04:02:54.366Z,0
2017-02-14T04:04:03.363Z,0
2017-02-14T04:05:12.375Z,0
2017-02-14T04:06:21.773Z,0
2017-02-14T04:07:30.777Z,0
2017-02-14T04:08:39.759Z,0
2017-02-14T04:09:48.767Z,0
2017-02-14T04:10:57.790Z,0
2017-02-14T04:12:06.774Z,0
2017-02-14T04:13:15.779Z,0
2017-02-14T04:14:24.775Z,0
2017-02-14T04:15:34.193Z,0
2017-02-14T04:16:43.216Z,0
2017-02-14T04:17:52.202Z,0
2017-02-14T04:19:01.210Z,0
2017-02-14T04:20:10.189Z,0
2017-02-14T04:21:19.195Z,0
2017-02-14T04:22:28.190Z,0
2017-02-14T04:23:37.848Z,0
2017-02-14T04:24:46.845Z,0
2017-02-14T04:25:55.826Z,0
2017-02-14T04:27:04.826Z,0
2017-02-14T04:28:13.822Z,0
2017-02-14T04:29:22.819Z,0
2017-02-14T04:30:31.833Z,0
2017-02-14T04:31:40.848Z,0
2017-02-14T04:32:49.835Z,0
2017-02-14T04:33:58.837Z,0
2017-02-14T04:35:07.833Z,0
2017-02-14T04:36:17.240Z,0
2017-02-14T04:37:26.256Z,0
2017-02-14T04:38:35.237Z,0
2017-02-14T04:39:44.234Z,0
2017-02-14T04:40:53.271Z,0
2017-02-14T04:42:02.270Z,0
2017-02-14T04:43:11.266Z,0
2017-02-14T04:44:20.261Z,0
2017-02-14T04:45:29.767Z,0
2017-02-14T04:46:38.770Z,0
2017-02-14T04:47:47.780Z,0
2017-02-14T04:48:56.817Z,0
2017-02-14T04:50:06.642Z,0
2017-02-14T04:51:15.642Z,0
2017-02-14T04:52:24.643Z,0
2017-02-14T04:53:34.078Z,0
2017-02-14T04:54:43.085Z,0
2017-02-14T04:55:52.098Z,0
2017-02-14T04:57:01.100Z,0
2017-02-14T04:58:10.100Z,0
2017-02-14T04:59:19.097Z,0
2017-02-14T05:00:28.088Z,0
2017-02-14T05:01:37.087Z,0
2017-02-14T05:02:46.098Z,0
2017-02-14T05:03:55.092Z,0
2017-02-14T05:05:04.093Z,0
2017-02-14T05:06:13.558Z,0
2017-02-14T05:07:22.579Z,0
2017-02-14T05:08:31.573Z,0
2017-02-14T05:09:40.619Z,0
2017-02-14T05:10:49.615Z,0
2017-02-14T05:11:58.607Z,0
2017-02-14T05:13:07.597Z,0
2017-02-14T05:14:16.634Z,0
2017-02-14T05:15:25.623Z,0
2017-02-14T05:16:34.629Z,0
2017-02-14T05:17:43.624Z,0
2017-02-14T05:18:52.641Z,0
2017-02-14T05:20:01.637Z,0
2017-02-14T05:21:11.062Z,0
2017-02-14T05:22:20.073Z,0
2017-02-14T05:23:29.063Z,0
2017-02-14T05:24:38.100Z,0
2017-02-14T05:25:47.090Z,0
2017-02-14T05:26:56.503Z,0
2017-02-14T05:28:05.510Z,0
2017-02-14T05:29:14.923Z,0
2017-02-14T05:30:23.925Z,0
2017-02-14T05:31:33.875Z,0
2017-02-14T05:32:44.065Z,0
2017-02-14T05:33:53.054Z,0
2017-02-14T05:35:02.052Z,0
2017-02-14T05:36:11.048Z,0
2017-02-14T05:37:20.049Z,0
2017-02-14T05:38:29.046Z,0
2017-02-14T05:39:38.034Z,0
2017-02-14T05:40:47.030Z,0
2017-02-14T05:41:56.030Z,0
2017-02-14T05:43:05.025Z,0
2017-02-14T05:44:14.015Z,0
2017-02-14T05:45:23.003Z,0
2017-02-14T05:46:31.999Z,0
2017-02-14T05:47:41.004Z,0
2017-02-14T05:48:49.995Z,0
2017-02-14T05:49:58.988Z,0
2017-02-14T05:51:08.820Z,0
2017-02-14T05:52:17.815Z,0
2017-02-14T05:53:26.809Z,0
2017-02-14T05:54:36.669Z,0
2017-02-14T05:55:45.682Z,0
2017-02-14T05:56:54.662Z,0
2017-02-14T05:58:03.668Z,0
2017-02-14T05:59:12.670Z,0
2017-02-14T06:00:21.675Z,0
2017-02-14T06:01:31.089Z,0
2017-02-14T06:02:40.099Z,0
2017-02-14T06:03:49.497Z,0
2017-02-14T06:04:58.502Z,0
2017-02-14T06:06:07.481Z,0
2017-02-14T06:07:16.902Z,0
2017-02-14T06:08:25.921Z,0
2017-02-14T06:09:34.916Z,4
2017-02-14T06:10:43.935Z,0
2017-02-14T06:11:52.966Z,0
2017-02-14T06:13:01.983Z,4
2017-02-14T06:14:11.031Z,4
2017-02-14T06:15:20.030Z,0
2017-02-14T06:16:29.029Z,4
2017-02-14T06:17:38.037Z,4
2017-02-14T06:18:47.039Z,4
2017-02-14T06:19:56.022Z,4
2017-02-14T06:21:05.033Z,8
2017-02-14T06:22:14.032Z,8
2017-02-14T06:23:23.018Z,8
2017-02-14T06:24:32.453Z,8
2017-02-14T06:25:41.868Z,12
2017-02-14T06:26:50.855Z,12
2017-02-14T06:27:59.849Z,12
2017-02-14T06:29:08.863Z,12
2017-02-14T06:30:17.844Z,16
2017-02-14T06:31:26.850Z,16
2017-02-14T06:32:35.855Z,16
2017-02-14T06:33:44.853Z,16
2017-02-14T06:34:53.865Z,24
2017-02-14T06:36:02.856Z,24
2017-02-14T06:37:12.000Z,24
2017-02-14T06:38:21.537Z,24
2017-02-14T06:39:30.532Z,24
2017-02-14T06:40:39.534Z,28
2017-02-14T06:41:48.533Z,28
2017-02-14T06:42:57.965Z,28
2017-02-14T06:44:06.959Z,36
2017-02-14T06:45:15.945Z,36
2017-02-14T06:46:24.948Z,36
2017-02-14T06:47:33.944Z,40
2017-02-14T06:48:43.362Z,40
2017-02-14T06:49:52.349Z,40
2017-02-14T06:51:01.751Z,44
2017-02-14T06:52:10.752Z,48
2017-02-14T06:53:19.762Z,44
2017-02-14T06:54:28.760Z,48
2017-02-14T06:55:37.737Z,52
2017-02-14T06:56:46.750Z,52
2017-02-14T06:57:55.770Z,52
2017-02-14T06:59:04.783Z,56
2017-02-14T07:00:13.785Z,56
2017-02-14T07:01:22.766Z,56
2017-02-14T07:02:31.760Z,60
2017-02-14T07:03:40.769Z,64
2017-02-14T07:04:49.787Z,60
2017-02-14T07:05:58.782Z,64
2017-02-14T07:07:07.797Z,68
2017-02-14T07:08:16.791Z,72
2017-02-14T07:09:25.782Z,76
2017-02-14T07:10:34.778Z,72
2017-02-14T07:11:43.773Z,72
2017-02-14T07:12:52.762Z,72
2017-02-14T07:14:01.758Z,72
2017-02-14T07:15:10.748Z,76
2017-02-14T07:16:19.752Z,80
2017-02-14T07:17:28.763Z,84
2017-02-14T07:18:37.776Z,84
2017-02-14T07:19:46.788Z,84
2017-02-14T07:20:55.786Z,84
2017-02-14T07:22:04.794Z,88
2017-02-14T07:23:13.781Z,88
2017-02-14T07:24:23.266Z,92
2017-02-14T07:25:32.268Z,96
2017-02-14T07:26:41.277Z,96
2017-02-14T07:27:50.261Z,92
2017-02-14T07:28:59.276Z,88
2017-02-14T07:30:08.297Z,96
2017-02-14T07:31:17.310Z,100
2017-02-14T07:32:26.320Z,100
2017-02-14T07:33:35.324Z,108
2017-02-14T07:34:44.320Z,112
2017-02-14T07:35:53.327Z,112
2017-02-14T07:37:02.360Z,124
2017-02-14T07:38:11.370Z,116
2017-02-14T07:39:20.356Z,116
2017-02-14T07:40:29.345Z,124
2017-02-14T07:41:38.328Z,120
2017-02-14T07:42:47.329Z,120
2017-02-14T07:43:56.318Z,132
2017-02-14T07:45:05.320Z,128
2017-02-14T07:46:14.320Z,136
2017-02-14T07:47:23.319Z,136
2017-02-14T07:48:32.338Z,136
2017-02-14T07:49:41.329Z,136
2017-02-14T07:50:50.345Z,132
2017-02-14T07:51:59.339Z,132
2017-02-14T07:53:08.338Z,132
2017-02-14T07:54:17.335Z,128
2017-02-14T07:55:26.358Z,128
2017-02-14T07:56:35.367Z,128
2017-02-14T07:57:44.355Z,136
2017-02-14T07:58:53.377Z,140
2017-02-14T08:00:02.396Z,148
2017-02-14T08:01:11.806Z,136
2017-02-14T08:02:20.797Z,152
2017-02-14T08:03:29.808Z,144
2017-02-14T08:04:38.794Z,140
2017-02-14T08:05:47.796Z,140
2017-02-14T08:06:56.811Z,148
2017-02-14T08:08:05.839Z,144
2017-02-14T08:09:14.849Z,136
2017-02-14T08:10:23.833Z,136
2017-02-14T08:11:32.831Z,140
2017-02-14T08:12:41.834Z,140
2017-02-14T08:13:50.834Z,136
2017-02-14T08:14:59.882Z,140
2017-02-14T08:16:08.893Z,140
2017-02-14T08:17:17.887Z,144
2017-02-14T08:18:26.896Z,156
2017-02-14T08:19:35.886Z,164
2017-02-14T08:20:45.371Z,164
2017-02-14T08:21:54.369Z,180
2017-02-14T08:23:03.780Z,184
2017-02-14T08:24:13.286Z,168
2017-02-14T08:25:22.273Z,156
2017-02-14T08:26:31.694Z,152
2017-02-14T08:27:40.690Z,160
2017-02-14T08:28:49.704Z,172
2017-02-14T08:29:58.711Z,176
2017-02-14T08:31:07.697Z,172
2017-02-14T08:32:17.110Z,156
2017-02-14T08:33:26.109Z,164
2017-02-14T08:34:35.101Z,156
2017-02-14T08:35:44.126Z,152
2017-02-14T08:36:53.133Z,152
2017-02-14T08:38:02.557Z,156
2017-02-14T08:39:11.572Z,160
2017-02-14T08:40:20.622Z,152
2017-02-14T08:41:57.534Z,160
2017-02-14T08:43:07.551Z,156
2017-02-14T08:44:16.600Z,160
2017-02-14T08:45:25.593Z,164
2017-02-14T08:46:34.592Z,164
2017-02-14T08:47:43.583Z,160
2017-02-14T08:48:52.602Z,156
2017-02-14T08:50:01.620Z,160
2017-02-14T08:51:10.616Z,164
2017-02-14T08:52:19.611Z,160
2017-02-14T08:53:28.618Z,160
2017-02-14T08:54:37.640Z,160
2017-02-14T08:55:47.056Z,164
2017-02-14T08:56:56.058Z,160
2017-02-14T08:58:05.056Z,160
2017-02-14T08:59:14.057Z,164
2017-02-14T09:00:23.041Z,164
2017-02-14T09:01:32.068Z,164
2017-02-14T09:02:41.073Z,164
2017-02-14T09:03:50.070Z,168
2017-02-14T09:04:59.065Z,160
2017-02-14T09:06:08.473Z,164
2017-02-14T09:07:17.466Z,164
2017-02-14T09:08:26.888Z,164
2017-02-14T09:09:35.901Z,164
2017-02-14T09:10:44.904Z,164
2017-02-14T09:11:53.920Z,164
2017-02-14T09:13:02.957Z,160
2017-02-14T09:14:12.018Z,164
2017-02-14T09:15:21.002Z,164
2017-02-14T09:16:30.010Z,164
2017-02-14T09:17:39.026Z,164
2017-02-14T09:18:48.938Z,160
2017-02-14T09:19:57.952Z,160
2017-02-14T09:21:06.988Z,160
2017-02-14T09:22:16.008Z,164
2017-02-14T09:23:25.042Z,164
2017-02-14T09:24:34.047Z,164
2017-02-14T09:25:43.060Z,164
2017-02-14T09:26:52.047Z,164
2017-02-14T09:28:01.069Z,164
2017-02-14T09:29:10.084Z,164
2017-02-14T09:30:19.087Z,168
2017-02-14T09:31:28.074Z,164
2017-02-14T09:32:37.072Z,168
2017-02-14T09:33:46.068Z,168
2017-02-14T09:34:55.099Z,168
2017-02-14T09:36:04.115Z,168
2017-02-14T09:37:13.109Z,168
2017-02-14T09:38:22.115Z,168
2017-02-14T09:39:31.127Z,168
2017-02-14T09:40:40.126Z,164
2017-02-14T09:41:49.124Z,168
2017-02-14T09:42:58.145Z,168
2017-02-14T09:44:07.149Z,168
2017-02-14T09:45:16.138Z,168
2017-02-14T09:46:25.129Z,168
2017-02-14T09:47:34.137Z,168
2017-02-14T09:48:43.133Z,172
2017-02-14T09:49:52.608Z,172
2017-02-14T09:51:01.619Z,168
2017-02-14T09:52:10.627Z,168
2017-02-14T09:53:20.115Z,172
2017-02-14T09:54:29.142Z,172
2017-02-14T09:55:38.128Z,168
2017-02-14T09:56:47.142Z,168
2017-02-14T09:57:56.150Z,172
2017-02-14T09:59:05.151Z,172
2017-02-14T10:00:14.145Z,168
2017-02-14T10:01:23.151Z,168
2017-02-14T10:02:32.145Z,172
2017-02-14T10:03:41.154Z,168
2017-02-14T10:04:50.590Z,172
2017-02-14T10:05:59.598Z,172
2017-02-14T10:07:08.608Z,168
2017-02-14T10:08:17.615Z,172
2017-02-14T10:09:26.631Z,172
2017-02-14T10:10:35.628Z,172
2017-02-14T10:11:44.658Z,172
2017-02-14T10:12:53.646Z,172
2017-02-14T10:14:02.722Z,172
2017-02-14T10:15:11.732Z,172
2017-02-14T10:16:20.728Z,176
2017-02-14T10:17:29.736Z,176
2017-02-14T10:18:38.729Z,172
2017-02-14T10:19:47.715Z,176
2017-02-14T10:20:57.126Z,172
2017-02-14T10:22:06.149Z,172
2017-02-14T10:23:15.134Z,176
2017-02-14T10:24:24.145Z,172
2017-02-14T10:25:33.555Z,172
2017-02-14T10:26:42.562Z,176
2017-02-14T10:27:51.970Z,176
2017-02-14T10:29:00.982Z,172
2017-02-14T10:30:09.971Z,176
2017-02-14T10:31:18.977Z,176
2017-02-14T10:32:27.999Z,176
2017-02-14T10:33:37.018Z,172
2017-02-14T10:34:46.033Z,176
2017-02-14T10:35:55.037Z,176
2017-02-14T10:37:04.038Z,176
2017-02-14T10:38:13.032Z,176
2017-02-14T10:39:22.446Z,176
2017-02-14T10:40:31.470Z,176
2017-02-14T10:41:40.470Z,176
2017-02-14T10:42:49.524Z,176
2017-02-14T10:43:58.526Z,176
2017-02-14T10:45:07.538Z,180
2017-02-14T10:46:16.538Z,180
2017-02-14T10:47:25.544Z,172
2017-02-14T10:48:34.546Z,176
2017-02-14T10:49:43.573Z,176
2017-02-14T10:50:52.580Z,176
2017-02-14T10:52:01.999Z,180
2017-02-14T10:53:11.411Z,180
2017-02-14T10:54:20.411Z,180
2017-02-14T10:55:29.431Z,180
2017-02-14T10:56:38.424Z,180
2017-02-14T10:57:47.454Z,180
2017-02-14T10:58:56.876Z,180
2017-02-14T11:00:06.285Z,180
2017-02-14T11:01:15.301Z,180
2017-02-14T11:02:24.312Z,180
2017-02-14T11:03:33.306Z,180
2017-02-14T11:04:42.340Z,180
2017-02-14T11:05:51.332Z,180
2017-02-14T11:07:00.340Z,180
2017-02-14T11:08:09.361Z,184
2017-02-14T11:09:18.350Z,180
2017-02-14T11:10:27.352Z,180
2017-02-14T11:11:36.383Z,180
2017-02-14T11:12:45.387Z,180
2017-02-14T11:13:54.371Z,180
2017-02-14T11:15:03.372Z,180
2017-02-14T11:16:12.401Z,184
2017-02-14T11:17:21.403Z,180
2017-02-14T11:18:30.413Z,184
2017-02-14T11:19:39.411Z,180
2017-02-14T11:20:48.427Z,180
2017-02-14T11:21:57.436Z,180
2017-02-14T11:23:06.842Z,184
2017-02-14T11:24:15.847Z,184
2017-02-14T11:25:24.849Z,184
2017-02-14T11:26:34.256Z,184
2017-02-14T11:27:43.743Z,180
2017-02-14T11:28:52.768Z,180
2017-02-14T11:30:01.768Z,184
2017-02-14T11:31:10.787Z,184
2017-02-14T11:32:19.882Z,180
2017-02-14T11:33:28.963Z,180
2017-02-14T11:34:37.973Z,184
2017-02-14T11:35:47.393Z,184
2017-02-14T11:36:56.413Z,184
2017-02-14T11:38:05.434Z,180
2017-02-14T11:39:14.455Z,188
2017-02-14T11:40:23.452Z,188
2017-02-14T11:41:32.864Z,184
2017-02-14T11:42:41.864Z,184
2017-02-14T11:43:50.868Z,188
2017-02-14T11:45:00.352Z,184
2017-02-14T11:46:09.380Z,184
2017-02-14T11:47:18.858Z,184
2017-02-14T11:48:27.845Z,184
2017-02-14T11:49:36.857Z,188
2017-02-14T11:50:45.881Z,184
2017-02-14T11:51:54.884Z,188
2017-02-14T11:53:03.913Z,184
2017-02-14T11:54:12.912Z,184
2017-02-14T11:55:21.898Z,188
2017-02-14T11:56:30.910Z,188
2017-02-14T11:57:39.917Z,188
2017-02-14T11:58:49.332Z,188
2017-02-14T11:59:58.331Z,188
2017-02-14T12:01:07.327Z,192
2017-02-14T12:02:16.351Z,192
2017-02-14T12:03:25.414Z,192
2017-02-14T12:04:34.413Z,188
2017-02-14T12:05:43.635Z,188
2017-02-14T12:06:52.933Z,188
2017-02-14T12:08:01.977Z,188
2017-02-14T12:09:10.997Z,188
2017-02-14T12:10:20.002Z,188
2017-02-14T12:11:29.024Z,188
2017-02-14T12:12:38.459Z,188
2017-02-14T12:13:47.462Z,192
2017-02-14T12:14:56.484Z,188
2017-02-14T12:16:05.572Z,192
2017-02-14T12:17:14.613Z,192
2017-02-14T12:18:23.612Z,192
2017-02-14T12:19:32.862Z,192
2017-02-14T12:20:41.887Z,192
2017-02-14T12:21:51.022Z,188
2017-02-14T12:23:00.221Z,188
2017-02-14T12:24:09.389Z,192
2017-02-14T12:25:18.467Z,192
2017-02-14T12:26:27.488Z,192
2017-02-14T12:27:36.482Z,188
2017-02-14T12:28:45.488Z,192
2017-02-14T12:29:54.510Z,188
2017-02-14T12:31:03.513Z,192
2017-02-14T12:32:12.539Z,192
2017-02-14T12:33:21.547Z,188
2017-02-14T12:34:30.705Z,188
2017-02-14T12:35:39.712Z,192
2017-02-14T12:36:48.820Z,192
2017-02-14T12:37:58.039Z,192
2017-02-14T12:39:07.222Z,192
2017-02-14T12:40:16.446Z,192
2017-02-14T12:41:25.479Z,196
2017-02-14T12:42:34.887Z,192
2017-02-14T12:43:43.903Z,192
2017-02-14T12:44:52.966Z,192
2017-02-14T12:46:02.056Z,192
2017-02-14T12:47:11.583Z,196
2017-02-14T12:48:20.959Z,196
2017-02-14T12:49:30.006Z,192
2017-02-14T12:50:39.193Z,192
2017-02-14T12:51:48.329Z,192
2017-02-14T12:52:57.337Z,192
2017-02-14T12:54:06.338Z,188
2017-02-14T12:55:15.331Z,192
2017-02-14T12:56:24.343Z,188
2017-02-14T12:57:34.180Z,188
2017-02-14T12:58:43.190Z,184
2017-02-14T12:59:52.648Z,188
2017-02-14T13:01:01.719Z,188
2017-02-14T13:02:10.896Z,192
2017-02-14T13:03:19.900Z,188
2017-02-14T13:04:29.234Z,188
2017-02-14T13:05:38.297Z,188
2017-02-14T13:06:47.347Z,188
2017-02-14T13:07:56.769Z,192
2017-02-14T13:09:05.822Z,192
2017-02-14T13:10:14.945Z,192
2017-02-14T13:11:23.975Z,188
2017-02-14T13:12:34.019Z,192
2017-02-14T13:13:43.244Z,192
2017-02-14T13:14:52.354Z,192
2017-02-14T13:16:01.394Z,196
2017-02-14T13:17:10.509Z,196
2017-02-14T13:18:19.633Z,196
2017-02-14T13:19:28.728Z,196
2017-02-14T13:20:37.714Z,200
2017-02-14T13:21:47.131Z,200
2017-02-14T13:22:56.197Z,200
2017-02-14T13:24:05.376Z,200
2017-02-14T13:25:14.752Z,196
2017-02-14T13:26:23.765Z,196
2017-02-14T13:27:32.761Z,192
2017-02-14T13:28:42.455Z,192
2017-02-14T13:29:51.608Z,192
2017-02-14T13:31:00.662Z,188
2017-02-14T13:32:10.731Z,184
2017-02-14T13:33:20.572Z,188
2017-02-14T13:34:29.615Z,188
2017-02-14T13:35:38.693Z,188
2017-02-14T13:36:47.815Z,188
2017-02-14T13:37:56.906Z,188
2017-02-14T13:39:06.324Z,188
2017-02-14T13:40:15.702Z,184
2017-02-14T13:41:24.778Z,184
2017-02-14T13:42:33.781Z,184
2017-02-14T13:43:42.860Z,180
2017-02-14T13:44:51.854Z,180
2017-02-14T13:46:00.856Z,184
2017-02-14T13:47:09.935Z,184
2017-02-14T13:48:18.963Z,180
2017-02-14T13:49:28.263Z,180
2017-02-14T13:50:37.315Z,180
2017-02-14T13:51:46.362Z,180
2017-02-14T13:52:55.359Z,176
2017-02-14T13:54:04.370Z,172
2017-02-14T13:55:13.391Z,172
2017-02-14T13:56:22.422Z,172
2017-02-14T13:57:31.423Z,176
2017-02-14T13:58:40.427Z,176
2017-02-14T13:59:49.438Z,172
2017-02-14T14:00:58.436Z,180
2017-02-14T14:02:07.456Z,176
2017-02-14T14:03:16.461Z,176
2017-02-14T14:04:25.465Z,176
2017-02-14T14:05:34.468Z,180
2017-02-14T14:06:43.461Z,180
2017-02-14T14:07:53.342Z,180
2017-02-14T14:09:02.391Z,180
2017-02-14T14:10:11.404Z,176
2017-02-14T14:11:20.393Z,172
2017-02-14T14:12:29.429Z,168
2017-02-14T14:13:38.426Z,164
2017-02-14T14:14:47.433Z,164
2017-02-14T14:15:56.423Z,164
2017-02-14T14:17:05.929Z,168
2017-02-14T14:18:14.930Z,168
2017-02-14T14:19:23.919Z,168
2017-02-14T14:20:32.917Z,168
2017-02-14T14:21:41.930Z,164
2017-02-14T14:22:50.918Z,164
2017-02-14T14:24:00.332Z,168
2017-02-14T14:25:09.360Z,172
2017-02-14T14:26:18.345Z,168
2017-02-14T14:27:27.363Z,168
2017-02-14T14:28:36.368Z,168
2017-02-14T14:29:45.382Z,168
2017-02-14T14:30:54.404Z,176
2017-02-14T14:32:03.833Z,188
2017-02-14T14:33:12.831Z,116
2017-02-14T14:34:21.840Z,280
2017-02-14T14:35:30.848Z,276
2017-02-14T14:36:39.841Z,220
2017-02-14T14:37:48.854Z,200
2017-02-14T14:38:57.868Z,180
2017-02-14T14:40:06.865Z,160
2017-02-14T14:41:15.862Z,160
2017-02-14T14:42:24.898Z,160
2017-02-14T14:43:33.914Z,156
2017-02-14T14:44:42.917Z,160
2017-02-14T14:45:51.918Z,160
2017-02-14T14:47:00.914Z,152
2017-02-14T14:48:09.913Z,164
2017-02-14T14:49:18.933Z,164
2017-02-14T14:50:27.946Z,160
2017-02-14T14:51:36.951Z,152
2017-02-14T14:52:46.382Z,140
2017-02-14T14:53:55.820Z,140
2017-02-14T14:55:04.817Z,136
2017-02-14T14:56:13.849Z,140
2017-02-14T14:57:23.007Z,132
2017-02-14T14:58:32.141Z,128
2017-02-14T14:59:41.294Z,124
2017-02-14T15:00:50.670Z,128
2017-02-14T15:01:59.693Z,124
2017-02-14T15:03:08.705Z,128
2017-02-14T15:04:17.724Z,124
2017-02-14T15:05:26.726Z,124
2017-02-14T15:06:36.309Z,120
2017-02-14T15:07:45.752Z,116
2017-02-14T15:08:54.886Z,116
2017-02-14T15:10:04.695Z,112
2017-02-14T15:11:16.967Z,112
2017-02-14T15:12:26.052Z,108
2017-02-14T15:13:35.082Z,108
2017-02-14T15:14:48.403Z,104
2017-02-14T15:15:57.444Z,104
2017-02-14T15:17:06.699Z,52
2017-02-14T15:17:26.483Z,224
2017-02-14T15:18:36.635Z,232
2017-02-14T15:19:46.094Z,228
2017-02-14T15:20:56.275Z,224
2017-02-14T15:22:06.041Z,224
2017-02-14T15:23:15.331Z,220
2017-02-14T15:24:25.033Z,216
2017-02-14T15:25:34.588Z,212
2017-02-14T15:26:43.644Z,204
2017-02-14T15:27:52.891Z,208
2017-02-14T15:29:02.344Z,204
2017-02-14T15:30:11.711Z,200
2017-02-14T15:31:22.983Z,196
2017-02-14T15:32:33.475Z,192
2017-02-14T15:33:42.500Z,188
2017-02-14T15:34:53.171Z,184
2017-02-14T15:36:02.654Z,180
2017-02-14T15:37:12.602Z,176
2017-02-14T15:38:21.842Z,172
2017-02-14T15:39:31.164Z,168
2017-02-14T15:40:40.216Z,164
2017-02-14T15:41:49.247Z,160
2017-02-14T15:42:58.298Z,156
2017-02-14T15:44:07.327Z,148
2017-02-14T15:45:16.346Z,144
2017-02-14T15:46:25.369Z,144
2017-02-14T15:47:34.407Z,140
2017-02-14T15:48:43.860Z,128
2017-02-14T15:49:52.904Z,124
2017-02-14T15:51:02.527Z,120
2017-02-14T15:52:11.543Z,116
2017-02-14T15:53:20.823Z,116
2017-02-14T15:54:30.029Z,112
2017-02-14T15:55:39.155Z,108
2017-02-14T15:56:48.538Z,100
2017-02-14T15:57:58.070Z,96
2017-02-14T15:59:07.197Z,92
2017-02-14T16:00:16.714Z,84
2017-02-14T16:01:26.178Z,84
2017-02-14T16:02:35.214Z,80
2017-02-14T16:03:44.292Z,76
2017-02-14T16:04:53.339Z,72
2017-02-14T16:06:02.581Z,64
2017-02-14T16:07:11.611Z,60
2017-02-14T16:08:20.632Z,56
2017-02-14T16:09:29.650Z,56
2017-02-14T16:10:39.092Z,48
2017-02-14T16:11:48.102Z,48
2017-02-14T16:12:57.133Z,44
2017-02-14T16:14:06.175Z,40
2017-02-14T16:15:15.181Z,36
2017-02-14T16:16:24.220Z,36
2017-02-14T16:17:33.251Z,32
2017-02-14T16:18:42.280Z,28
2017-02-14T16:19:51.324Z,24